Time;durP1;ratioP1;P1;durP2;ratioP2;P2;SDS_P1;SDS_P2;PMS_P1;PMS_P2;Temp;Humidity;BMP_temperature;BMP_pressure;BME280_temperature;BME280_humidity;BME280_pressure;Samples;Min_cycle;Max_cycle;Signal;HPM_P1;HPM_P2
2021/04/22 00:02:11;;;;;;;30.23;21.65;;;7.60;99.90;;;;;;5042454;28;20136;-69
2021/04/22 00:04:38;;;;;;;33.08;22.63;;;7.60;99.90;;;;;;5039897;28;20054;-69
2021/04/22 00:07:06;;;;;;;30.80;23.02;;;7.60;99.90;;;;;;5044667;28;20454;-69
2021/04/22 00:09:33;;;;;;;32.08;22.67;;;7.60;99.90;;;;;;5050025;28;20383;-69
2021/04/22 00:11:59;;;;;;;32.85;23.05;;;7.60;99.90;;;;;;5035517;28;20045;-70
2021/04/22 00:14:26;;;;;;;33.20;23.38;;;7.70;99.90;;;;;;5050010;28;20045;-69
2021/04/22 00:16:53;;;;;;;35.42;24.38;;;7.70;99.90;;;;;;5046541;28;20054;-69
2021/04/22 00:19:20;;;;;;;31.75;24.20;;;7.80;99.90;;;;;;5036075;28;20520;-70
2021/04/22 00:21:47;;;;;;;31.63;22.35;;;7.80;99.90;;;;;;5052104;28;20152;-70
2021/04/22 00:24:14;;;;;;;28.63;20.77;;;7.90;99.90;;;;;;5043168;28;20073;-70
2021/04/22 00:26:40;;;;;;;26.85;20.27;;;7.80;99.90;;;;;;5044217;28;20053;-70
2021/04/22 00:29:07;;;;;;;28.45;20.08;;;7.80;99.90;;;;;;5045252;28;20142;-70
2021/04/22 00:31:34;;;;;;;27.70;20.15;;;7.80;99.90;;;;;;5049890;28;20472;-69
2021/04/22 00:34:01;;;;;;;27.08;19.67;;;7.80;99.90;;;;;;5049646;28;20140;-69
2021/04/22 00:36:28;;;;;;;32.17;20.98;;;7.70;99.90;;;;;;5052361;28;20045;-69
2021/04/22 00:38:58;;;;;;;25.58;19.30;;;7.70;99.90;;;;;;5044378;28;20511;-69
2021/04/22 00:41:25;;;;;;;28.10;20.45;;;7.70;99.90;;;;;;5043729;28;20045;-68
2021/04/22 00:43:53;;;;;;;31.95;21.35;;;7.60;99.90;;;;;;5047450;28;20484;-69
2021/04/22 00:46:21;;;;;;;27.40;18.40;;;7.60;99.90;;;;;;5051862;28;20053;-69
2021/04/22 00:48:48;;;;;;;25.00;18.23;;;7.60;99.90;;;;;;5049386;28;20518;-69
2021/04/22 00:51:18;;;;;;;27.83;19.25;;;7.50;99.90;;;;;;5031350;28;20081;-69
2021/04/22 00:53:45;;;;;;;31.10;21.45;;;7.50;99.90;;;;;;5045586;28;20114;-69
2021/04/22 00:56:13;;;;;;;31.17;20.42;;;7.40;99.90;;;;;;5045827;28;20037;-69
2021/04/22 00:58:40;;;;;;;33.15;20.63;;;7.40;99.90;;;;;;5065702;28;20033;-69
2021/04/22 01:01:07;;;;;;;25.48;19.17;;;7.40;99.90;;;;;;5050678;28;20052;-68
2021/04/22 01:03:34;;;;;;;30.35;20.98;;;7.40;99.90;;;;;;5043020;28;20076;-69
2021/04/22 01:06:07;;;;;;;30.15;21.58;;;7.40;99.90;;;;;;5050389;28;20080;-69
2021/04/22 01:08:34;;;;;;;30.65;20.85;;;7.40;99.90;;;;;;5052460;28;20095;-69
2021/04/22 01:11:03;;;;;;;29.80;20.75;;;7.40;99.90;;;;;;5050349;28;20392;-68
2021/04/22 01:13:30;;;;;;;29.02;21.05;;;7.40;99.90;;;;;;5049159;28;20045;-69
2021/04/22 01:15:57;;;;;;;30.85;22.98;;;7.40;99.90;;;;;;5049955;28;20533;-68
2021/04/22 01:18:24;;;;;;;33.05;21.35;;;7.40;99.90;;;;;;5039314;28;20348;-68
2021/04/22 01:20:52;;;;;;;34.38;22.13;;;7.40;99.90;;;;;;5050904;28;20161;-69
2021/04/22 01:23:19;;;;;;;31.02;22.33;;;7.40;99.90;;;;;;5048053;28;20056;-68
2021/04/22 01:25:49;;;;;;;31.33;22.20;;;7.30;99.90;;;;;;5052902;28;20145;-68
2021/04/22 01:28:18;;;;;;;33.78;23.88;;;7.30;99.90;;;;;;5048775;28;20087;-68
2021/04/22 01:30:51;;;;;;;32.67;22.42;;;7.30;99.90;;;;;;5051478;28;20131;-69
2021/04/22 01:33:22;;;;;;;29.20;21.92;;;7.30;99.90;;;;;;5049839;28;20467;-69
2021/04/22 01:35:52;;;;;;;30.83;20.85;;;7.30;99.90;;;;;;5045505;28;20049;-69
2021/04/22 01:38:19;;;;;;;32.03;21.08;;;7.40;99.90;;;;;;5033559;28;20095;-69
2021/04/22 01:40:47;;;;;;;27.90;19.52;;;7.40;99.90;;;;;;5033077;28;20372;-69
2021/04/22 01:43:14;;;;;;;27.83;17.92;;;7.40;99.90;;;;;;5032401;28;20068;-69
2021/04/22 01:45:41;;;;;;;22.67;16.98;;;7.40;99.90;;;;;;5043288;28;20098;-69
2021/04/22 01:48:09;;;;;;;28.67;19.70;;;7.40;99.90;;;;;;5045334;28;20140;-69
2021/04/22 01:50:36;;;;;;;24.63;18.50;;;7.40;99.90;;;;;;5040796;28;20096;-70
2021/04/22 01:53:05;;;;;;;24.88;17.83;;;7.40;99.90;;;;;;5046538;28;20052;-69
2021/04/22 01:55:37;;;;;;;23.75;16.98;;;7.40;99.90;;;;;;5044979;28;20822;-69
2021/04/22 01:58:07;;;;;;;22.30;16.70;;;7.40;99.90;;;;;;5038884;28;20060;-69
2021/04/22 02:00:39;;;;;;;23.50;17.33;;;7.40;99.90;;;;;;5046051;28;20045;-69
2021/04/22 02:03:07;;;;;;;26.27;16.73;;;7.40;99.90;;;;;;5046443;28;20061;-69
2021/04/22 02:05:35;;;;;;;27.40;18.13;;;7.40;99.90;;;;;;5042131;28;20052;-69
2021/04/22 02:08:03;;;;;;;23.25;17.17;;;7.40;99.90;;;;;;5050168;28;20064;-69
2021/04/22 02:10:30;;;;;;;22.75;16.38;;;7.30;99.90;;;;;;5045075;28;20487;-69
2021/04/22 02:12:57;;;;;;;22.55;16.42;;;7.30;99.90;;;;;;5046095;28;20045;-69
2021/04/22 02:15:27;;;;;;;24.67;17.77;;;7.30;99.90;;;;;;5041188;28;20080;-69
2021/04/22 02:17:55;;;;;;;24.15;17.67;;;7.30;99.90;;;;;;5041745;28;20069;-69
2021/04/22 02:20:22;;;;;;;28.40;17.85;;;7.30;99.90;;;;;;5050616;28;20080;-69
2021/04/22 02:22:50;;;;;;;25.92;18.23;;;7.30;99.90;;;;;;5050759;28;20171;-69
2021/04/22 02:25:20;;;;;;;24.17;16.35;;;7.30;99.90;;;;;;5051456;28;20064;-69
2021/04/22 02:27:47;;;;;;;25.10;17.40;;;7.30;99.90;;;;;;5051080;28;20490;-69
2021/04/22 02:30:20;;;;;;;23.92;16.65;;;7.40;99.90;;;;;;5050386;28;20103;-69
2021/04/22 02:32:48;;;;;;;26.70;18.35;;;7.40;99.90;;;;;;5042820;28;20632;-69
2021/04/22 02:35:18;;;;;;;23.38;17.10;;;7.40;99.90;;;;;;5049378;28;20072;-69
2021/04/22 02:37:46;;;;;;;22.02;17.10;;;7.40;99.90;;;;;;5045800;28;20522;-68
2021/04/22 02:40:17;;;;;;;21.45;16.17;;;7.40;99.90;;;;;;5050522;28;20110;-68
2021/04/22 02:42:44;;;;;;;22.73;16.67;;;7.40;99.90;;;;;;5051153;28;20475;-69
2021/04/22 02:45:14;;;;;;;23.40;16.25;;;7.40;99.90;;;;;;5049197;28;20083;-69
2021/04/22 02:47:41;;;;;;;24.30;17.45;;;7.30;99.90;;;;;;5049746;28;20049;-68
2021/04/22 02:50:11;;;;;;;25.33;17.30;;;7.30;99.90;;;;;;5040363;28;20205;-68
2021/04/22 02:52:38;;;;;;;23.73;16.00;;;7.40;99.90;;;;;;5049268;28;20043;-69
2021/04/22 02:55:07;;;;;;;21.70;15.93;;;7.40;99.90;;;;;;5051243;28;20104;-69
2021/04/22 02:57:34;;;;;;;24.38;16.45;;;7.40;99.90;;;;;;5047693;28;20119;-69
2021/04/22 03:00:03;;;;;;;22.08;15.50;;;7.30;99.90;;;;;;5049242;28;20375;-69
2021/04/22 03:02:30;;;;;;;19.95;15.15;;;7.30;99.90;;;;;;5043899;28;20049;-69
2021/04/22 03:04:58;;;;;;;24.58;15.88;;;7.30;99.90;;;;;;5047009;28;20128;-69
2021/04/22 03:07:24;;;;;;;20.88;15.15;;;7.30;99.90;;;;;;5048507;28;20052;-69
2021/04/22 03:09:51;;;;;;;18.75;15.13;;;7.40;99.90;;;;;;5050882;28;20047;-69
2021/04/22 03:12:18;;;;;;;22.00;15.18;;;7.40;99.90;;;;;;5045619;28;20088;-69
2021/04/22 03:14:45;;;;;;;25.70;16.50;;;7.30;99.90;;;;;;5045751;28;20076;-69
2021/04/22 03:17:13;;;;;;;22.58;16.80;;;7.40;99.90;;;;;;5050244;28;20052;-69
2021/04/22 03:19:39;;;;;;;25.15;17.00;;;7.30;99.90;;;;;;5051220;28;20053;-69
2021/04/22 03:22:06;;;;;;;23.90;17.10;;;7.30;99.90;;;;;;5050974;28;20122;-69
2021/04/22 03:24:33;;;;;;;24.35;16.55;;;7.30;99.90;;;;;;5050127;28;20136;-69
2021/04/22 03:27:00;;;;;;;24.05;17.48;;;7.20;99.90;;;;;;5050182;28;20110;-69
2021/04/22 03:29:27;;;;;;;24.92;16.98;;;7.20;99.90;;;;;;5049486;28;20052;-69
2021/04/22 03:31:54;;;;;;;25.15;16.67;;;7.20;99.90;;;;;;5036076;28;20136;-69
2021/04/22 03:34:22;;;;;;;28.15;17.48;;;7.20;99.90;;;;;;5047701;28;20045;-69
2021/04/22 03:36:49;;;;;;;24.73;17.42;;;7.20;99.90;;;;;;5045731;28;20514;-69
2021/04/22 03:39:16;;;;;;;26.83;17.92;;;7.20;99.90;;;;;;5047693;28;20057;-69
2021/04/22 03:41:43;;;;;;;28.38;18.00;;;7.20;99.90;;;;;;5042809;28;20453;-69
2021/04/22 03:44:09;;;;;;;24.85;18.00;;;7.20;99.90;;;;;;5050153;28;20094;-69
2021/04/22 03:46:36;;;;;;;25.48;16.65;;;7.30;99.90;;;;;;5049647;28;20118;-69
2021/04/22 03:49:04;;;;;;;27.40;18.67;;;7.30;99.90;;;;;;5042756;28;20063;-69
2021/04/22 03:51:32;;;;;;;24.63;16.75;;;7.30;99.90;;;;;;5049315;28;20095;-69
2021/04/22 03:53:58;;;;;;;26.60;17.25;;;7.30;99.90;;;;;;5049491;28;20140;-69
2021/04/22 03:56:26;;;;;;;25.85;16.50;;;7.40;99.90;;;;;;5050634;28;20085;-69
2021/04/22 03:58:57;;;;;;;24.98;16.55;;;7.40;99.90;;;;;;5035663;28;20484;-69
2021/04/22 04:01:24;;;;;;;27.23;16.30;;;7.40;99.90;;;;;;5035918;28;20123;-69
2021/04/22 04:03:50;;;;;;;23.30;17.25;;;7.40;99.90;;;;;;5045765;28;20100;-69
2021/04/22 04:06:17;;;;;;;24.60;16.83;;;7.40;99.90;;;;;;5037627;28;20106;-69
2021/04/22 04:08:44;;;;;;;25.40;16.98;;;7.40;99.90;;;;;;5049989;28;20068;-69
2021/04/22 04:11:11;;;;;;;23.60;17.30;;;7.40;99.90;;;;;;5050698;28;20052;-69
2021/04/22 04:13:38;;;;;;;26.27;18.23;;;7.40;99.90;;;;;;5042078;28;20045;-69
2021/04/22 04:16:05;;;;;;;25.33;17.73;;;7.30;99.90;;;;;;5050485;28;20072;-69
2021/04/22 04:18:32;;;;;;;27.70;17.70;;;7.30;99.90;;;;;;5049939;28;20442;-69
2021/04/22 04:20:59;;;;;;;32.17;18.20;;;7.20;99.90;;;;;;5050022;28;20049;-69
2021/04/22 04:23:26;;;;;;;28.02;18.10;;;7.20;99.90;;;;;;5048651;28;20102;-69
2021/04/22 04:25:53;;;;;;;30.88;19.20;;;7.10;99.90;;;;;;5048407;28;20163;-69
2021/04/22 04:28:19;;;;;;;28.88;18.63;;;7.20;99.90;;;;;;5048385;28;20072;-68
2021/04/22 04:30:46;;;;;;;29.33;18.15;;;7.10;99.90;;;;;;5048372;28;20053;-68
2021/04/22 04:33:13;;;;;;;28.63;18.42;;;7.10;99.90;;;;;;5048118;28;20053;-68
2021/04/22 04:35:40;;;;;;;26.50;18.55;;;7.00;99.90;;;;;;5035385;28;20069;-68
2021/04/22 04:38:07;;;;;;;28.20;17.90;;;7.00;99.90;;;;;;5033973;28;20076;-69
2021/04/22 04:40:34;;;;;;;30.33;19.60;;;7.10;99.90;;;;;;5034723;28;20446;-68
2021/04/22 04:43:02;;;;;;;27.63;18.08;;;7.00;99.90;;;;;;5034050;28;20127;-70
2021/04/22 04:45:29;;;;;;;32.88;19.05;;;7.10;99.90;;;;;;5048582;28;20158;-70
2021/04/22 04:48:01;;;;;;;30.90;18.85;;;7.00;99.90;;;;;;5037742;28;20083;-69
2021/04/22 04:50:28;;;;;;;30.65;17.70;;;7.00;99.90;;;;;;5053373;28;20049;-69
2021/04/22 04:52:56;;;;;;;33.50;18.77;;;7.00;99.90;;;;;;5053588;28;20399;-69
2021/04/22 04:55:23;;;;;;;31.17;18.80;;;7.10;99.90;;;;;;5048359;28;20507;-69
2021/04/22 04:57:50;;;;;;;30.75;17.80;;;7.10;99.90;;;;;;5051119;28;20044;-70
2021/04/22 05:00:17;;;;;;;29.98;17.95;;;7.00;99.90;;;;;;5023732;28;20057;-69
2021/04/22 05:02:45;;;;;;;33.20;18.92;;;7.00;99.90;;;;;;5048937;28;20399;-69
2021/04/22 05:05:13;;;;;;;29.55;17.80;;;7.00;99.90;;;;;;5050310;28;20061;-69
2021/04/22 05:07:40;;;;;;;34.15;16.17;;;7.00;99.90;;;;;;5047504;28;20065;-69
2021/04/22 05:10:08;;;;;;;24.70;15.27;;;7.00;99.90;;;;;;5052891;28;20126;-70
2021/04/22 05:12:36;;;;;;;28.23;15.82;;;7.00;99.90;;;;;;5052502;28;20100;-70
2021/04/22 05:15:05;;;;;;;25.10;14.35;;;7.00;99.90;;;;;;5041150;28;20120;-70
2021/04/22 05:17:32;;;;;;;27.40;15.55;;;7.10;99.90;;;;;;5051877;28;20131;-70
2021/04/22 05:19:59;;;;;;;24.40;15.15;;;7.20;99.90;;;;;;5051853;28;20073;-69
2021/04/22 05:22:28;;;;;;;24.23;13.65;;;7.30;99.90;;;;;;5051294;28;20053;-70
2021/04/22 05:24:55;;;;;;;25.30;13.45;;;7.30;99.90;;;;;;5050613;28;20085;-70
2021/04/22 05:27:21;;;;;;;22.48;11.90;;;7.40;99.90;;;;;;5049490;28;20111;-69
2021/04/22 05:29:48;;;;;;;20.83;12.43;;;7.40;99.90;;;;;;5052318;28;20045;-70
2021/04/22 05:32:15;;;;;;;23.17;11.95;;;7.50;99.90;;;;;;5051252;28;20045;-70
2021/04/22 05:34:42;;;;;;;17.88;10.80;;;7.60;99.90;;;;;;5042329;28;20073;-70
2021/04/22 05:37:18;;;;;;;18.10;9.65;;;7.70;99.90;;;;;;5032376;28;20573;-69
2021/04/22 05:39:45;;;;;;;20.65;10.27;;;7.80;99.90;;;;;;5033207;28;20508;-70
2021/04/22 05:42:12;;;;;;;17.20;10.30;;;8.00;99.90;;;;;;5044091;28;20057;-69
2021/04/22 05:44:41;;;;;;;20.08;10.05;;;8.00;99.90;;;;;;5023948;28;20056;-70
2021/04/22 05:47:08;;;;;;;13.68;8.90;;;8.10;99.90;;;;;;5050044;28;20076;-69
2021/04/22 05:49:35;;;;;;;20.52;9.35;;;8.30;99.90;;;;;;5039174;28;20045;-71
2021/04/22 05:52:02;;;;;;;21.98;9.85;;;8.20;99.90;;;;;;5032635;28;20132;-68
2021/04/22 05:54:30;;;;;;;21.73;10.32;;;8.30;99.90;;;;;;5047807;28;20466;-70
2021/04/22 05:56:57;;;;;;;19.38;9.63;;;8.40;99.90;;;;;;5051290;28;20179;-71
2021/04/22 05:59:24;;;;;;;20.13;9.05;;;8.40;99.90;;;;;;5049624;28;20071;-71
2021/04/22 06:01:51;;;;;;;15.30;9.20;;;8.30;99.90;;;;;;5043450;28;20127;-69
2021/04/22 06:04:18;;;;;;;16.02;8.55;;;8.30;99.90;;;;;;5047689;28;20037;-69
2021/04/22 06:06:45;;;;;;;18.05;8.48;;;8.20;99.90;;;;;;5052789;28;20098;-71
2021/04/22 06:09:12;;;;;;;15.60;8.27;;;8.20;99.90;;;;;;5049714;28;20132;-70
2021/04/22 06:11:38;;;;;;;13.80;7.47;;;8.30;99.90;;;;;;5048851;28;20132;-70
2021/04/22 06:14:06;;;;;;;14.18;8.13;;;8.30;99.90;;;;;;5049524;28;20046;-69
2021/04/22 06:16:34;;;;;;;13.65;7.35;;;8.30;99.90;;;;;;5045978;28;20412;-70
2021/04/22 06:19:05;;;;;;;16.63;7.80;;;8.30;99.90;;;;;;5050330;28;20055;-70
2021/04/22 06:21:32;;;;;;;14.77;7.47;;;8.30;99.90;;;;;;5052248;28;20128;-70
2021/04/22 06:24:00;;;;;;;11.60;7.07;;;8.30;99.90;;;;;;5050271;28;20061;-70
2021/04/22 06:26:29;;;;;;;11.50;8.98;;;8.30;99.90;;;;;;5043382;28;20061;-69
2021/04/22 06:29:00;;;;;;;14.40;8.25;;;8.40;99.90;;;;;;5043834;28;20111;-70
2021/04/22 06:31:27;;;;;;;10.85;7.53;;;8.40;99.90;;;;;;5042619;28;20145;-70
2021/04/22 06:33:54;;;;;;;11.85;7.82;;;8.50;99.90;;;;;;5052281;28;20044;-69
2021/04/22 06:36:21;;;;;;;13.07;8.02;;;8.50;99.90;;;;;;5036411;28;20061;-69
2021/04/22 06:38:49;;;;;;;11.32;7.50;;;8.40;99.90;;;;;;5031536;28;20129;-69
2021/04/22 06:41:16;;;;;;;15.07;7.65;;;8.30;99.90;;;;;;5046227;28;20078;-68
2021/04/22 06:43:43;;;;;;;12.35;7.95;;;8.50;99.90;;;;;;5046637;28;20080;-68
2021/04/22 06:46:10;;;;;;;11.63;7.82;;;8.70;99.90;;;;;;5047928;28;20060;-68
2021/04/22 06:48:37;;;;;;;11.45;7.03;;;8.70;99.90;;;;;;5039872;28;20046;-69
2021/04/22 06:51:08;;;;;;;12.32;7.43;;;8.70;99.90;;;;;;5046270;28;20068;-69
2021/04/22 06:53:36;;;;;;;12.00;7.15;;;8.60;99.90;;;;;;5024647;28;20124;-71
2021/04/22 06:56:04;;;;;;;10.30;7.30;;;8.60;99.90;;;;;;5048402;28;20049;-69
2021/04/22 06:58:31;;;;;;;10.48;6.85;;;8.70;99.90;;;;;;5050938;28;20045;-69
2021/04/22 07:00:58;;;;;;;11.60;6.60;;;8.70;99.90;;;;;;5048201;28;20118;-70
2021/04/22 07:03:25;;;;;;;12.27;7.10;;;8.90;99.90;;;;;;5047152;28;20056;-70
2021/04/22 07:05:52;;;;;;;12.20;6.82;;;9.00;99.90;;;;;;5047847;28;20067;-69
2021/04/22 07:08:20;;;;;;;13.13;7.45;;;9.10;99.90;;;;;;5049832;28;20377;-69
2021/04/22 07:10:48;;;;;;;17.17;8.63;;;9.20;99.90;;;;;;5050620;28;20056;-69
2021/04/22 07:13:14;;;;;;;14.70;7.40;;;9.20;99.90;;;;;;5043247;28;20132;-69
2021/04/22 07:15:41;;;;;;;10.23;7.20;;;9.20;99.90;;;;;;5039483;28;20502;-70
2021/04/22 07:18:11;;;;;;;15.15;7.32;;;9.00;99.90;;;;;;5046379;28;20077;-70
2021/04/22 07:20:39;;;;;;;10.57;6.55;;;8.80;99.90;;;;;;5037618;28;20049;-70
2021/04/22 07:23:06;;;;;;;9.48;7.57;;;8.90;99.90;;;;;;5048459;28;20491;-71
2021/04/22 07:25:35;;;;;;;14.60;7.97;;;8.80;99.90;;;;;;5050841;28;20057;-69
2021/04/22 07:28:04;;;;;;;10.30;7.35;;;8.60;99.90;;;;;;5049058;28;20045;-70
2021/04/22 07:30:33;;;;;;;14.07;7.93;;;8.70;99.90;;;;;;5047017;28;20036;-69
2021/04/22 07:33:00;;;;;;;10.73;7.40;;;8.70;99.90;;;;;;5037434;28;20049;-69
2021/04/22 07:35:28;;;;;;;17.30;9.02;;;8.70;99.90;;;;;;5044963;28;20050;-70
2021/04/22 07:37:55;;;;;;;12.45;8.23;;;8.80;99.90;;;;;;5043307;28;20049;-69
2021/04/22 07:40:25;;;;;;;17.33;8.60;;;8.50;99.90;;;;;;5049631;28;20475;-70
2021/04/22 07:42:53;;;;;;;12.18;7.60;;;8.50;99.90;;;;;;5050909;28;20491;-70
2021/04/22 07:45:27;;;;;;;13.25;7.85;;;8.70;99.90;;;;;;5040287;28;20054;-69
2021/04/22 07:47:55;;;;;;;11.98;7.95;;;8.80;99.90;;;;;;5040131;28;20234;-69
2021/04/22 07:50:22;;;;;;;10.40;8.10;;;8.90;99.90;;;;;;5035033;28;20464;-69
2021/04/22 07:52:50;;;;;;;14.38;7.95;;;8.90;99.90;;;;;;5040169;28;20423;-69
2021/04/22 07:55:25;;;;;;;11.38;6.95;;;9.00;99.90;;;;;;5050352;28;20455;-69
2021/04/22 07:57:52;;;;;;;12.05;7.45;;;9.10;99.90;;;;;;5038861;28;20476;-69
2021/04/22 08:00:21;;;;;;;11.70;8.07;;;9.20;99.90;;;;;;5043451;28;20194;-70
2021/04/22 08:02:49;;;;;;;12.48;8.10;;;9.10;99.90;;;;;;5044047;28;20080;-68
2021/04/22 08:05:19;;;;;;;10.90;8.00;;;9.10;99.90;;;;;;5048771;28;20065;-69
2021/04/22 08:08:09;;;;;;;15.85;7.95;;;9.30;99.90;;;;;;5047632;28;20435;-69
2021/04/22 08:10:39;;;;;;;13.30;8.10;;;9.10;99.90;;;;;;5054174;28;20053;-69
2021/04/22 08:13:10;;;;;;;10.98;8.00;;;9.20;99.90;;;;;;5053199;28;20118;-68
2021/04/22 08:15:43;;;;;;;11.80;7.50;;;9.30;99.90;;;;;;5054110;28;20231;-70
2021/04/22 08:18:10;;;;;;;11.32;7.93;;;9.10;99.90;;;;;;5045218;28;20045;-70
2021/04/22 08:20:38;;;;;;;10.63;7.45;;;9.00;99.90;;;;;;5054372;28;20064;-70
2021/04/22 08:23:08;;;;;;;10.23;7.80;;;8.90;99.90;;;;;;5045727;28;20470;-70
2021/04/22 08:25:48;;;;;;;12.00;7.63;;;8.90;99.90;;;;;;5053772;28;20465;-69
2021/04/22 08:28:17;;;;;;;15.20;8.40;;;8.70;99.90;;;;;;5066495;28;20081;-69
2021/04/22 08:31:13;;;;;;;10.82;7.82;;;8.70;99.90;;;;;;5055001;28;20159;-69
2021/04/22 08:33:40;;;;;;;13.02;8.43;;;8.80;99.90;;;;;;5051622;28;20573;-68
2021/04/22 08:36:09;;;;;;;11.38;8.38;;;8.80;99.90;;;;;;5040912;28;20808;-69
2021/04/22 08:38:36;;;;;;;9.93;7.70;;;8.60;99.90;;;;;;5046009;28;20063;-69
2021/04/22 08:41:03;;;;;;;14.32;7.68;;;8.60;99.90;;;;;;5050548;28;20049;-68
2021/04/22 08:43:35;;;;;;;15.35;8.55;;;8.70;99.90;;;;;;5051913;28;20064;-69
2021/04/22 08:46:03;;;;;;;13.43;7.53;;;8.90;99.90;;;;;;5051992;28;20091;-70
2021/04/22 08:48:30;;;;;;;10.48;7.30;;;9.00;99.90;;;;;;5054061;28;20049;-69
2021/04/22 08:50:57;;;;;;;10.63;7.80;;;8.80;99.90;;;;;;5049678;28;20093;-70
2021/04/22 08:53:29;;;;;;;9.20;8.10;;;8.80;99.90;;;;;;5048059;28;20052;-70
2021/04/22 08:55:57;;;;;;;10.45;7.72;;;8.70;99.90;;;;;;5047164;28;20072;-70
2021/04/22 08:58:24;;;;;;;11.18;8.15;;;8.70;99.90;;;;;;5048201;28;20080;-69
2021/04/22 09:00:57;;;;;;;10.02;8.02;;;8.90;99.90;;;;;;5052944;28;20131;-69
2021/04/22 09:03:24;;;;;;;12.13;8.13;;;9.00;99.90;;;;;;5051444;28;20059;-70
2021/04/22 09:05:52;;;;;;;12.73;7.68;;;9.10;99.90;;;;;;5047600;28;20487;-69
2021/04/22 09:08:29;;;;;;;11.70;7.80;;;9.10;99.90;;;;;;5049640;28;20132;-69
2021/04/22 09:10:56;;;;;;;11.98;8.07;;;9.40;99.90;;;;;;5046231;28;20124;-69
2021/04/22 09:13:25;;;;;;;15.32;8.55;;;9.70;99.90;;;;;;5048369;28;20068;-70
2021/04/22 09:16:07;;;;;;;13.63;8.82;;;9.70;99.90;;;;;;5047754;28;20053;-68
2021/04/22 09:18:55;;;;;;;13.63;8.00;;;9.70;99.90;;;;;;5039471;28;20095;-70
2021/04/22 09:21:28;;;;;;;11.73;7.97;;;9.80;99.90;;;;;;5043974;28;20123;-70
2021/04/22 09:24:08;;;;;;;15.15;7.95;;;9.80;99.90;;;;;;5050447;28;20491;-69
2021/04/22 09:26:41;;;;;;;10.95;8.10;;;9.80;99.90;;;;;;5053366;28;20418;-70
2021/04/22 09:29:10;;;;;;;11.98;7.57;;;9.90;99.90;;;;;;5046422;28;20065;-69
2021/04/22 09:31:38;;;;;;;14.25;8.15;;;10.20;99.90;;;;;;5038986;28;20067;-69
2021/04/22 09:34:10;;;;;;;11.88;8.85;;;10.40;99.90;;;;;;5038151;28;20060;-69
2021/04/22 09:36:48;;;;;;;16.05;8.80;;;10.60;99.90;;;;;;5041190;28;20073;-69
2021/04/22 09:39:29;;;;;;;13.55;9.02;;;10.60;99.90;;;;;;5032180;28;20084;-70
2021/04/22 09:42:04;;;;;;;14.43;8.60;;;10.50;99.90;;;;;;5032710;28;20077;-71
2021/04/22 09:44:31;;;;;;;13.38;8.88;;;10.50;99.90;;;;;;5039058;28;20064;-69
2021/04/22 09:47:06;;;;;;;10.75;7.97;;;10.50;99.90;;;;;;5038797;28;20069;-71
2021/04/22 09:49:43;;;;;;;13.57;7.80;;;10.60;99.90;;;;;;5040783;28;20042;-69
2021/04/22 09:52:10;;;;;;;13.70;8.52;;;10.50;99.90;;;;;;5032255;28;20388;-70
2021/04/22 09:54:48;;;;;;;12.32;8.00;;;10.40;99.90;;;;;;5038860;28;20057;-70
2021/04/22 09:57:25;;;;;;;11.82;8.45;;;10.50;99.90;;;;;;5039409;28;20053;-70
2021/04/22 09:59:54;;;;;;;14.23;8.50;;;10.60;99.90;;;;;;5040514;28;20045;-69
2021/04/22 10:02:21;;;;;;;12.82;8.20;;;10.60;99.90;;;;;;5050843;28;20053;-70
2021/04/22 10:04:50;;;;;;;13.20;8.75;;;10.80;99.90;;;;;;5044324;28;20528;-69
2021/04/22 10:07:26;;;;;;;14.02;7.70;;;10.80;99.90;;;;;;5044602;28;20049;-69
2021/04/22 10:10:01;;;;;;;11.18;8.15;;;10.70;99.90;;;;;;5052069;28;20072;-69
2021/04/22 10:12:31;;;;;;;11.10;8.13;;;10.80;99.90;;;;;;5051242;28;20045;-70
2021/04/22 10:15:22;;;;;;;17.73;9.02;;;10.70;99.90;;;;;;5050584;28;20077;-70
2021/04/22 10:17:57;;;;;;;9.88;7.38;;;10.80;99.90;;;;;;5051237;28;20064;-71
2021/04/22 10:20:26;;;;;;;11.45;8.45;;;10.90;99.90;;;;;;5050163;28;20072;-70
2021/04/22 10:23:07;;;;;;;11.93;8.30;;;10.80;99.90;;;;;;5038572;28;20586;-70
2021/04/22 10:25:37;;;;;;;13.43;8.05;;;10.60;99.90;;;;;;5034867;28;20053;-68
2021/04/22 10:28:09;;;;;;;11.38;7.65;;;10.70;99.90;;;;;;5060989;28;20049;-70
2021/04/22 10:30:37;;;;;;;13.60;8.38;;;11.00;99.90;;;;;;5040277;28;20044;-71
2021/04/22 10:33:06;;;;;;;12.43;9.10;;;11.10;99.90;;;;;;5048663;28;20048;-70
2021/04/22 10:35:36;;;;;;;16.88;8.82;;;10.60;99.90;;;;;;5051612;28;20045;-69
2021/04/22 10:38:04;;;;;;;14.95;8.85;;;10.70;99.90;;;;;;5050355;28;20049;-70
2021/04/22 10:40:36;;;;;;;13.73;8.98;;;10.80;99.00;;;;;;5047817;28;20053;-70
2021/04/22 10:43:05;;;;;;;12.93;8.88;;;11.00;99.90;;;;;;5051345;28;20053;-69
2021/04/22 10:45:35;;;;;;;14.00;8.50;;;11.00;98.70;;;;;;5047813;28;20049;-70
2021/04/22 10:48:05;;;;;;;10.80;8.55;;;11.20;99.70;;;;;;5046179;28;20069;-68
2021/04/22 10:50:39;;;;;;;15.98;9.05;;;11.10;98.40;;;;;;5044190;28;20045;-70
2021/04/22 10:53:09;;;;;;;13.65;9.05;;;11.30;98.00;;;;;;5049651;28;20072;-70
2021/04/22 10:55:39;;;;;;;14.60;9.05;;;11.40;98.70;;;;;;5048854;28;20041;-70
2021/04/22 10:58:22;;;;;;;18.80;9.38;;;11.40;96.90;;;;;;5050481;28;20100;-69
2021/04/22 11:00:51;;;;;;;19.00;9.82;;;11.50;96.10;;;;;;5034035;28;20072;-68
2021/04/22 11:03:27;;;;;;;15.40;9.23;;;11.70;98.40;;;;;;5048880;28;20466;-70
2021/04/22 11:05:57;;;;;;;11.70;9.18;;;11.90;95.70;;;;;;5046389;28;20556;-70
2021/04/22 11:08:36;;;;;;;11.57;9.13;;;12.00;94.60;;;;;;5048480;28;20061;-70
2021/04/22 11:11:15;;;;;;;12.30;9.65;;;11.90;93.80;;;;;;5044481;28;20087;-69
2021/04/22 11:13:43;;;;;;;16.48;10.30;;;11.80;94.10;;;;;;5047896;28;20052;-69
2021/04/22 11:16:10;;;;;;;19.85;9.90;;;11.90;93.70;;;;;;5045061;28;20049;-71
2021/04/22 11:18:40;;;;;;;10.52;9.25;;;11.90;93.00;;;;;;5042240;28;20049;-69
2021/04/22 11:21:30;;;;;;;10.50;8.50;;;12.20;93.70;;;;;;5043572;28;20128;-70
2021/04/22 11:23:59;;;;;;;12.43;9.48;;;12.80;93.10;;;;;;5034671;28;20140;-70
2021/04/22 11:26:32;;;;;;;11.35;9.45;;;13.10;93.60;;;;;;5043347;28;20057;-68
2021/04/22 11:29:19;;;;;;;10.93;9.23;;;13.20;92.00;;;;;;5055464;28;20559;-70
2021/04/22 11:31:53;;;;;;;13.63;9.55;;;13.20;91.20;;;;;;5048692;28;20051;-70
2021/04/22 11:34:34;;;;;;;13.63;9.80;;;13.60;91.70;;;;;;5047085;28;20049;-70
2021/04/22 11:37:13;;;;;;;10.40;9.30;;;13.70;91.20;;;;;;5044845;28;20069;-69
2021/04/22 11:39:40;;;;;;;12.60;9.90;;;13.90;91.30;;;;;;5046949;28;20492;-70
2021/04/22 11:42:07;;;;;;;17.23;9.77;;;13.90;90.00;;;;;;5050233;28;20077;-70
2021/04/22 11:44:41;;;;;;;11.38;9.98;;;13.90;90.20;;;;;;5046537;28;20136;-70
2021/04/22 11:47:32;;;;;;;15.40;10.00;;;14.20;90.00;;;;;;5052510;28;20084;-69
2021/04/22 11:50:07;;;;;;;14.90;10.75;;;14.30;90.00;;;;;;5049385;28;20527;-70
2021/04/22 11:52:43;;;;;;;11.48;9.63;;;14.50;89.30;;;;;;5047050;28;20069;-69
2021/04/22 11:55:16;;;;;;;11.80;10.52;;;15.10;87.80;;;;;;5050608;28;20044;-69
2021/04/22 11:57:58;;;;;;;13.27;10.00;;;15.20;84.30;;;;;;5056234;28;20072;-69
2021/04/22 12:00:28;;;;;;;16.30;9.98;;;15.10;83.60;;;;;;5048580;28;20064;-69
2021/04/22 12:02:56;;;;;;;12.38;10.00;;;15.20;82.00;;;;;;5039341;28;20049;-69
2021/04/22 12:05:24;;;;;;;12.00;10.30;;;15.40;80.20;;;;;;5053104;28;20053;-69
2021/04/22 12:07:57;;;;;;;12.40;10.20;;;15.40;80.30;;;;;;5051094;28;20140;-67
2021/04/22 12:10:25;;;;;;;11.65;10.27;;;15.60;77.00;;;;;;5051034;28;20499;-69
2021/04/22 12:13:02;;;;;;;17.13;10.02;;;15.70;77.50;;;;;;5048985;28;20041;-71
2021/04/22 12:15:29;;;;;;;10.63;9.27;;;15.60;74.50;;;;;;5052044;28;20068;-70
2021/04/22 12:17:56;;;;;;;13.20;9.57;;;15.50;70.10;;;;;;5051063;28;20049;-70
2021/04/22 12:20:23;;;;;;;13.55;9.05;;;15.50;70.60;;;;;;5047361;28;20053;-68
2021/04/22 12:22:50;;;;;;;11.57;10.38;;;15.50;70.20;;;;;;5048568;28;20476;-69
2021/04/22 12:25:20;;;;;;;12.32;10.23;;;15.30;68.40;;;;;;5032409;28;20057;-69
2021/04/22 12:27:51;;;;;;;10.77;9.57;;;15.40;69.70;;;;;;5051111;28;20053;-67
2021/04/22 12:30:44;;;;;;;12.98;10.25;;;15.40;69.50;;;;;;5051672;28;20057;-69
2021/04/22 12:33:22;;;;;;;15.13;10.00;;;15.30;67.50;;;;;;5052899;28;20051;-71
2021/04/22 12:35:58;;;;;;;11.20;10.02;;;15.40;68.20;;;;;;5052702;28;20033;-69
2021/04/22 12:38:28;;;;;;;13.30;10.00;;;15.80;69.10;;;;;;5052351;28;20473;-70
2021/04/22 12:41:07;;;;;;;11.40;10.00;;;16.10;68.30;;;;;;5050813;28;20140;-70
2021/04/22 12:43:36;;;;;;;15.20;11.00;;;16.50;70.30;;;;;;5046365;28;20049;-69
2021/04/22 12:46:09;;;;;;;12.55;10.25;;;16.60;68.30;;;;;;5052531;28;20106;-69
2021/04/22 12:48:37;;;;;;;12.02;9.70;;;16.90;68.50;;;;;;5045621;28;20095;-70
2021/04/22 12:51:04;;;;;;;14.35;9.93;;;16.80;66.40;;;;;;5048756;28;20128;-70